Laurentides, Canada
Current Conditions -  °F | °C
As of 7:00 PM on Friday 28 Nov 2014 (Local Time) from CYMX Reporting Station
Broken Clouds Broken Clouds  
Wind Chill: 13°   Ceiling: 3000
Heat Index: 21°   Visibility: 25mi
Dew Point:   Wind: 7mph
Humidity: 58%   Direction: 270°W
Pressure: 30.17"   Gusts: NA
Location:  45.85°N, 73.77°W
Report Text: CYMX 290000Z 27006KT 240V320 25SM BKN030 M06/M13 A3017 RMK SC7 SLP223
Loading
Personal Weather Stations






























Interactive Weather Map New forecast layout! Learn more

10-Day Weather Forecast

Advertisements
Track Severe Weather on mobile